Time;durP1;ratioP1;P1;durP2;ratioP2;P2;SDS_P1;SDS_P2;PMS_P1;PMS_P2;Temp;Humidity;BMP_temperature;BMP_pressure;BME280_temperature;BME280_humidity;BME280_pressure;Samples;Min_cycle;Max_cycle;Signal;HPM_P1;HPM_P2
2023/03/24 00:00:23;;;;;;;1.50;1.40;;;14.10;99.90;;;;;;5055048;28;20572;-56
2023/03/24 00:02:50;;;;;;;1.17;0.97;;;14.10;99.90;;;;;;5055340;28;20519;-57
2023/03/24 00:05:21;;;;;;;1.50;1.40;;;14.10;99.90;;;;;;5055154;28;20452;-56
2023/03/24 00:07:48;;;;;;;1.30;1.20;;;14.10;99.90;;;;;;5055227;28;20922;-56
2023/03/24 00:10:21;;;;;;;1.57;1.47;;;14.10;99.90;;;;;;5055065;28;20442;-56
2023/03/24 00:12:49;;;;;;;2.20;1.30;;;14.10;99.90;;;;;;5054790;28;21002;-56
2023/03/24 00:15:20;;;;;;;2.27;1.23;;;14.10;99.90;;;;;;5054963;28;20455;-56
2023/03/24 00:17:49;;;;;;;3.07;1.40;;;14.20;99.90;;;;;;5055077;28;20457;-56
2023/03/24 00:20:18;;;;;;;1.50;1.40;;;14.10;99.90;;;;;;5054986;28;20485;-56
2023/03/24 00:22:49;;;;;;;1.60;1.50;;;14.10;99.90;;;;;;5054870;28;20473;-57
2023/03/24 00:25:17;;;;;;;2.33;1.63;;;14.10;99.90;;;;;;5054965;28;20430;-57
2023/03/24 00:27:47;;;;;;;1.90;1.23;;;14.10;99.90;;;;;;5054394;28;20460;-56
2023/03/24 00:30:15;;;;;;;1.20;1.10;;;14.10;99.90;;;;;;5054736;28;20446;-57
2023/03/24 00:32:45;;;;;;;1.70;1.60;;;14.10;99.90;;;;;;5054766;28;20519;-57
2023/03/24 00:35:15;;;;;;;1.80;1.60;;;14.20;99.90;;;;;;5054311;28;20480;-57
2023/03/24 00:37:43;;;;;;;2.33;1.37;;;14.20;99.90;;;;;;5054877;28;20446;-57
2023/03/24 00:40:12;;;;;;;2.73;1.43;;;14.20;99.90;;;;;;5054417;28;21018;-57
2023/03/24 00:42:44;;;;;;;2.37;2.17;;;14.20;99.90;;;;;;5054151;28;20527;-56
2023/03/24 00:45:12;;;;;;;2.60;1.60;;;14.20;99.90;;;;;;5054520;28;20434;-56
2023/03/24 00:47:39;;;;;;;3.73;1.77;;;14.20;99.90;;;;;;5054543;28;20446;-56
2023/03/24 00:50:10;;;;;;;1.87;1.77;;;14.20;99.90;;;;;;5054338;28;20472;-56
2023/03/24 00:52:42;;;;;;;2.00;1.80;;;14.20;99.90;;;;;;5054286;28;20493;-57
2023/03/24 00:55:12;;;;;;;3.73;2.23;;;14.20;99.90;;;;;;5054450;28;20441;-57
2023/03/24 00:57:39;;;;;;;1.83;1.73;;;14.30;99.90;;;;;;5055259;28;20457;-56
2023/03/24 01:00:13;;;;;;;2.10;1.90;;;14.30;99.90;;;;;;5054626;28;20577;-56
2023/03/24 01:02:40;;;;;;;2.87;2.13;;;14.30;99.90;;;;;;5054482;28;20475;-56
2023/03/24 01:05:08;;;;;;;3.90;2.43;;;14.30;99.90;;;;;;5054215;28;20456;-57
2023/03/24 01:07:35;;;;;;;4.53;2.10;;;14.20;99.90;;;;;;5054241;28;20453;-56
2023/03/24 01:10:03;;;;;;;2.80;2.10;;;14.30;99.90;;;;;;5054221;28;20449;-56
2023/03/24 01:12:31;;;;;;;2.63;2.10;;;14.30;99.90;;;;;;5053990;28;20468;-57
2023/03/24 01:14:59;;;;;;;2.00;1.90;;;14.30;99.90;;;;;;5054002;28;20452;-57
2023/03/24 01:17:28;;;;;;;3.17;2.17;;;14.30;99.90;;;;;;5053701;28;20537;-57
2023/03/24 01:19:57;;;;;;;2.10;1.93;;;14.30;99.90;;;;;;5053825;28;20485;-57
2023/03/24 01:22:30;;;;;;;2.70;2.10;;;14.40;99.90;;;;;;5053449;28;20858;-57
2023/03/24 01:24:59;;;;;;;2.67;2.10;;;14.30;99.90;;;;;;5053537;28;20487;-57
2023/03/24 01:27:26;;;;;;;3.00;2.80;;;14.30;99.90;;;;;;5053468;28;20461;-56
2023/03/24 01:29:58;;;;;;;2.20;2.00;;;14.30;99.90;;;;;;5053754;28;20438;-56
2023/03/24 01:32:25;;;;;;;4.53;2.43;;;14.30;99.90;;;;;;5053765;28;20442;-56
2023/03/24 01:34:52;;;;;;;3.50;2.27;;;14.30;99.90;;;;;;5053339;28;20455;-57
2023/03/24 01:37:19;;;;;;;3.03;2.40;;;14.40;99.90;;;;;;5053649;28;20452;-56
2023/03/24 01:39:47;;;;;;;2.97;2.63;;;14.40;99.90;;;;;;5052578;28;20496;-56
2023/03/24 01:42:18;;;;;;;2.70;2.30;;;14.40;99.90;;;;;;5053521;28;20478;-57
2023/03/24 01:44:46;;;;;;;2.80;2.17;;;14.40;99.90;;;;;;5053556;28;20472;-56
2023/03/24 01:47:13;;;;;;;2.40;2.20;;;14.40;99.90;;;;;;5053586;28;20446;-56
2023/03/24 01:49:45;;;;;;;2.40;2.20;;;14.30;99.90;;;;;;5053597;28;20931;-56
2023/03/24 01:52:17;;;;;;;2.93;2.63;;;14.40;99.90;;;;;;5054115;28;20426;-57
2023/03/24 01:54:49;;;;;;;3.60;2.37;;;14.40;99.90;;;;;;5053504;28;20448;-57
2023/03/24 01:57:22;;;;;;;3.40;2.97;;;14.50;99.90;;;;;;5053357;28;20430;-56
2023/03/24 01:59:51;;;;;;;3.00;2.67;;;14.50;99.90;;;;;;5053308;28;20858;-56
2023/03/24 02:02:20;;;;;;;3.00;2.70;;;14.50;99.90;;;;;;5053121;28;20445;-57
2023/03/24 02:04:52;;;;;;;3.00;2.70;;;14.50;99.90;;;;;;5052996;28;20453;-57
2023/03/24 02:07:33;;;;;;;2.70;2.30;;;14.40;99.90;;;;;;5053292;28;20438;-57
2023/03/24 02:10:03;;;;;;;3.17;2.80;;;14.50;99.90;;;;;;5052923;28;20910;-56
2023/03/24 02:12:31;;;;;;;3.27;2.70;;;14.50;99.90;;;;;;5053192;28;20467;-57
2023/03/24 02:14:58;;;;;;;5.10;2.90;;;14.60;99.90;;;;;;5053104;28;20446;-57
2023/03/24 02:17:47;;;;;;;3.30;2.20;;;14.50;99.90;;;;;;5053216;28;20445;-57
2023/03/24 02:20:49;;;;;;;2.30;2.10;;;14.50;99.90;;;;;;5052814;28;20465;-56
2023/03/24 02:23:46;;;;;;;3.93;2.10;;;14.60;99.90;;;;;;5053102;28;20472;-57
2023/03/24 02:26:49;;;;;;;5.00;2.50;;;14.50;99.90;;;;;;5053164;28;20802;-56
2023/03/24 02:30:08;;;;;;;4.77;2.20;;;14.60;99.90;;;;;;5053009;28;20516;-57
2023/03/24 02:33:13;;;;;;;2.30;2.10;;;14.60;99.90;;;;;;5052949;28;20468;-57
2023/03/24 02:36:09;;;;;;;3.10;2.20;;;14.60;99.90;;;;;;5052901;28;20457;-57
2023/03/24 02:39:00;;;;;;;2.80;2.50;;;14.70;99.90;;;;;;5052716;28;20457;-57
2023/03/24 02:41:33;;;;;;;3.77;2.63;;;14.70;99.90;;;;;;5052887;28;20470;-57
2023/03/24 02:44:06;;;;;;;2.20;2.10;;;14.80;99.90;;;;;;5052787;28;20473;-57
2023/03/24 02:46:38;;;;;;;2.43;2.23;;;14.70;99.90;;;;;;5052702;28;20430;-57
2023/03/24 02:49:15;;;;;;;3.43;2.57;;;14.80;99.90;;;;;;5053002;28;20458;-57
2023/03/24 02:51:52;;;;;;;2.80;2.10;;;14.80;99.90;;;;;;5056102;28;20433;-57
2023/03/24 02:54:22;;;;;;;3.27;2.10;;;14.80;99.90;;;;;;5056453;28;20484;-57
2023/03/24 02:56:57;;;;;;;3.97;2.57;;;14.80;99.90;;;;;;5056285;28;20469;-57
2023/03/24 02:59:31;;;;;;;3.13;2.00;;;14.80;99.90;;;;;;5056680;28;20425;-57
2023/03/24 03:02:02;;;;;;;5.60;2.57;;;14.90;99.90;;;;;;5056999;28;20472;-57
2023/03/24 03:04:36;;;;;;;2.83;2.03;;;14.90;99.90;;;;;;5056476;28;20473;-57
2023/03/24 03:07:08;;;;;;;1.90;1.80;;;14.90;99.90;;;;;;5056367;28;20425;-57
2023/03/24 03:09:39;;;;;;;2.10;1.90;;;14.90;99.90;;;;;;5056252;28;20812;-57
2023/03/24 03:12:11;;;;;;;2.47;1.70;;;14.90;99.90;;;;;;5056422;28;20437;-57
2023/03/24 03:14:44;;;;;;;2.33;2.13;;;14.90;99.90;;;;;;5056327;28;20425;-56
2023/03/24 03:17:17;;;;;;;3.13;1.87;;;14.90;99.90;;;;;;5056234;28;20500;-56
2023/03/24 03:19:49;;;;;;;2.13;1.93;;;14.90;99.90;;;;;;5056231;28;20430;-56
2023/03/24 03:22:18;;;;;;;3.70;2.90;;;14.90;99.90;;;;;;5056023;28;20492;-57
2023/03/24 03:24:51;;;;;;;6.53;2.17;;;15.00;99.90;;;;;;5056150;28;20445;-57
2023/03/24 03:27:25;;;;;;;2.97;2.00;;;15.00;99.90;;;;;;5056080;28;20434;-56
2023/03/24 03:29:59;;;;;;;2.67;2.47;;;14.90;99.90;;;;;;5055983;28;20441;-57
2023/03/24 03:32:30;;;;;;;3.47;2.50;;;14.90;99.90;;;;;;5055607;28;20434;-57
2023/03/24 03:35:02;;;;;;;4.83;2.60;;;14.90;99.90;;;;;;5055763;28;20430;-57
2023/03/24 03:37:36;;;;;;;2.47;2.27;;;14.90;99.90;;;;;;5055661;28;20957;-56
2023/03/24 03:40:08;;;;;;;2.57;2.20;;;14.90;99.90;;;;;;5055433;28;20833;-56
2023/03/24 03:42:37;;;;;;;4.13;2.43;;;14.90;99.90;;;;;;5055320;28;20476;-57
2023/03/24 03:45:05;;;;;;;2.70;2.50;;;14.90;99.90;;;;;;5055738;28;20457;-57
2023/03/24 03:47:32;;;;;;;3.20;2.70;;;14.90;99.90;;;;;;5055329;28;20508;-57
2023/03/24 03:49:59;;;;;;;2.47;2.27;;;14.80;99.90;;;;;;5055520;28;20940;-57
2023/03/24 03:52:25;;;;;;;3.00;2.37;;;14.80;99.90;;;;;;5055538;28;20453;-57
2023/03/24 03:54:54;;;;;;;2.77;2.40;;;14.70;99.90;;;;;;5055484;28;20463;-57
2023/03/24 03:57:21;;;;;;;3.53;2.77;;;14.70;99.90;;;;;;5055625;28;20849;-57
2023/03/24 03:59:49;;;;;;;2.70;2.43;;;14.70;99.90;;;;;;5055464;28;20452;-56
2023/03/24 04:02:29;;;;;;;2.37;2.17;;;14.70;99.90;;;;;;5054633;28;20503;-57
2023/03/24 04:05:12;;;;;;;3.87;3.33;;;14.70;99.90;;;;;;5055413;28;20497;-57
2023/03/24 04:08:03;;;;;;;3.80;3.00;;;14.70;99.90;;;;;;5055352;28;20464;-57
2023/03/24 04:10:45;;;;;;;6.53;4.00;;;14.60;99.90;;;;;;5055091;28;20430;-56
2023/03/24 04:13:19;;;;;;;3.40;3.10;;;14.50;99.90;;;;;;5055488;28;20484;-56
2023/03/24 04:15:54;;;;;;;3.37;3.07;;;14.40;99.90;;;;;;5054889;28;20904;-56
2023/03/24 04:18:32;;;;;;;3.40;3.00;;;14.30;99.90;;;;;;5055207;28;20437;-56
2023/03/24 04:21:12;;;;;;;3.60;3.03;;;14.10;99.90;;;;;;5055088;28;20465;-55
2023/03/24 04:23:48;;;;;;;5.20;3.60;;;14.00;99.90;;;;;;5055035;28;20516;-55
2023/03/24 04:26:25;;;;;;;2.60;2.37;;;13.90;99.90;;;;;;5055005;28;20965;-56
2023/03/24 04:29:03;;;;;;;2.80;2.60;;;13.80;99.90;;;;;;5054923;28;20469;-56
2023/03/24 04:31:36;;;;;;;4.20;2.57;;;13.80;99.90;;;;;;5054916;28;20454;-56
2023/03/24 04:34:11;;;;;;;2.87;2.57;;;13.70;99.90;;;;;;5054734;28;20477;-56
2023/03/24 04:36:44;;;;;;;3.23;2.70;;;13.60;99.90;;;;;;5054656;28;20441;-56
2023/03/24 04:39:13;;;;;;;3.00;2.40;;;13.60;99.90;;;;;;5054588;28;20487;-56
2023/03/24 04:41:41;;;;;;;3.33;2.53;;;13.50;99.90;;;;;;5054391;28;20995;-57
2023/03/24 04:44:10;;;;;;;3.23;2.60;;;13.50;99.90;;;;;;5054541;28;20466;-56
2023/03/24 04:46:39;;;;;;;3.10;2.73;;;13.50;99.90;;;;;;5054610;28;20507;-56
2023/03/24 04:49:06;;;;;;;3.70;2.60;;;13.50;99.90;;;;;;5054542;28;20454;-56
2023/03/24 04:51:33;;;;;;;4.00;2.47;;;13.50;99.90;;;;;;5054484;28;20499;-56
2023/03/24 04:54:00;;;;;;;3.30;3.00;;;13.50;99.90;;;;;;5054420;28;20472;-57
2023/03/24 04:56:38;;;;;;;2.70;2.20;;;13.50;99.90;;;;;;5054389;28;20456;-56
2023/03/24 04:59:05;;;;;;;3.23;2.40;;;13.50;99.90;;;;;;5054602;28;20434;-56
2023/03/24 05:01:36;;;;;;;2.37;2.17;;;13.50;99.90;;;;;;5054272;28;20517;-56
2023/03/24 05:04:04;;;;;;;2.53;2.33;;;13.40;99.90;;;;;;5054208;28;20473;-56
2023/03/24 05:06:31;;;;;;;3.30;2.57;;;13.40;99.90;;;;;;5054296;28;20453;-56
2023/03/24 05:08:58;;;;;;;3.10;2.90;;;13.40;99.90;;;;;;5054133;28;20453;-56
2023/03/24 05:11:26;;;;;;;2.67;1.80;;;13.40;99.90;;;;;;5054166;28;20442;-56
2023/03/24 05:13:54;;;;;;;2.60;1.27;;;13.30;99.90;;;;;;5054410;28;20519;-56
2023/03/24 05:16:21;;;;;;;1.33;0.90;;;13.20;99.90;;;;;;5054616;28;20481;-56
2023/03/24 05:18:48;;;;;;;4.47;1.47;;;13.10;99.90;;;;;;5054560;28;20916;-56
2023/03/24 05:21:16;;;;;;;2.83;1.50;;;12.90;99.90;;;;;;5054144;28;20508;-57
2023/03/24 05:23:43;;;;;;;3.57;1.13;;;12.80;99.90;;;;;;5054160;28;20470;-56
2023/03/24 05:26:09;;;;;;;3.30;0.97;;;12.60;99.90;;;;;;5053914;28;20798;-56
2023/03/24 05:28:36;;;;;;;3.10;0.67;;;12.50;99.90;;;;;;5053662;28;21155;-56
2023/03/24 05:31:03;;;;;;;1.57;0.77;;;12.40;99.90;;;;;;5053736;28;20449;-57
2023/03/24 05:33:30;;;;;;;2.50;0.80;;;12.30;99.90;;;;;;5053774;28;20496;-56
2023/03/24 05:35:56;;;;;;;3.67;1.10;;;12.10;99.90;;;;;;5053322;28;20453;-56
2023/03/24 05:38:24;;;;;;;4.43;1.27;;;12.00;99.90;;;;;;5053707;28;20484;-56
2023/03/24 05:40:51;;;;;;;4.20;1.57;;;11.90;99.90;;;;;;5053736;28;20470;-56
2023/03/24 05:43:19;;;;;;;4.37;1.57;;;11.90;99.90;;;;;;5053727;28;20900;-56
2023/03/24 05:45:46;;;;;;;3.77;1.27;;;11.70;99.90;;;;;;5053648;28;20500;-56
2023/03/24 05:48:12;;;;;;;5.90;1.23;;;11.70;99.90;;;;;;5054720;28;20457;-56
2023/03/24 05:50:39;;;;;;;2.97;1.03;;;11.60;99.90;;;;;;5053691;28;20453;-56
2023/03/24 05:53:06;;;;;;;4.00;0.80;;;11.50;99.90;;;;;;5054277;28;20966;-56
2023/03/24 05:55:35;;;;;;;3.83;1.40;;;11.50;99.90;;;;;;5053747;28;20450;-56
2023/03/24 05:58:02;;;;;;;2.73;1.20;;;11.50;99.90;;;;;;5053287;28;20449;-56
2023/03/24 06:00:30;;;;;;;5.60;1.53;;;11.50;99.90;;;;;;5053593;28;20446;-56
2023/03/24 06:03:00;;;;;;;5.20;1.23;;;11.50;99.90;;;;;;5052841;28;20999;-56
2023/03/24 06:05:27;;;;;;;3.00;0.93;;;11.60;99.90;;;;;;5053652;28;20452;-56
2023/03/24 06:07:57;;;;;;;2.70;1.30;;;11.50;99.90;;;;;;5053511;28;20528;-56
2023/03/24 06:10:25;;;;;;;7.50;1.50;;;11.60;99.90;;;;;;5053528;28;20445;-56
2023/03/24 06:12:54;;;;;;;5.33;1.43;;;11.60;99.90;;;;;;5053649;28;20556;-56
2023/03/24 06:15:21;;;;;;;11.00;2.10;;;11.60;99.90;;;;;;5053477;28;20460;-56
2023/03/24 06:17:49;;;;;;;4.20;1.33;;;11.60;99.90;;;;;;5053576;28;20548;-56
2023/03/24 06:20:17;;;;;;;5.20;1.20;;;11.60;99.90;;;;;;5053536;28;20506;-56
2023/03/24 06:22:46;;;;;;;6.07;1.30;;;11.60;99.90;;;;;;5053097;28;20489;-57
2023/03/24 06:25:14;;;;;;;3.40;1.30;;;11.60;99.90;;;;;;5053983;28;21030;-56
2023/03/24 06:27:45;;;;;;;5.07;1.50;;;11.60;99.90;;;;;;5057187;28;20945;-57
2023/03/24 06:30:15;;;;;;;2.10;1.00;;;11.70;99.90;;;;;;5057429;28;20469;-56
2023/03/24 06:32:42;;;;;;;3.50;1.07;;;11.70;99.90;;;;;;5058352;28;20508;-57
2023/03/24 06:35:09;;;;;;;3.73;1.53;;;11.80;99.90;;;;;;5057838;28;20449;-57
2023/03/24 06:37:36;;;;;;;3.30;1.17;;;11.80;99.90;;;;;;5057198;28;20887;-56
2023/03/24 06:40:08;;;;;;;2.97;1.10;;;11.90;99.90;;;;;;5057156;28;20453;-56
2023/03/24 06:42:35;;;;;;;3.90;1.27;;;12.00;99.90;;;;;;5057555;28;20488;-56
2023/03/24 06:45:02;;;;;;;2.93;1.50;;;12.00;99.90;;;;;;5057445;28;20460;-57
2023/03/24 06:47:30;;;;;;;4.70;1.43;;;12.00;99.90;;;;;;5058889;28;20445;-56
2023/03/24 06:49:56;;;;;;;4.30;1.77;;;12.00;99.90;;;;;;5059058;28;20453;-56
2023/03/24 06:52:24;;;;;;;5.77;1.50;;;12.00;99.90;;;;;;5058021;28;20441;-57
2023/03/24 06:54:51;;;;;;;6.50;1.83;;;11.90;99.90;;;;;;5057495;28;20942;-56
2023/03/24 06:57:18;;;;;;;4.70;1.53;;;11.80;99.90;;;;;;5057208;28;20503;-56
2023/03/24 06:59:45;;;;;;;5.90;1.90;;;11.80;99.90;;;;;;5057115;28;20441;-56
2023/03/24 07:02:12;;;;;;;4.13;1.50;;;11.90;99.90;;;;;;5056499;28;20531;-57
2023/03/24 07:04:40;;;;;;;5.90;1.90;;;12.00;99.90;;;;;;5056526;28;20481;-56
2023/03/24 07:07:07;;;;;;;8.70;1.67;;;12.10;99.90;;;;;;5056280;28;20982;-57
2023/03/24 07:09:33;;;;;;;13.20;3.07;;;12.20;99.90;;;;;;5056530;28;20453;-56
2023/03/24 07:12:02;;;;;;;8.10;2.10;;;12.20;99.90;;;;;;5056060;28;20837;-56
2023/03/24 07:14:28;;;;;;;6.93;2.67;;;12.20;99.90;;;;;;5056360;28;20480;-57
2023/03/24 07:16:55;;;;;;;13.37;3.90;;;12.20;99.90;;;;;;5056672;28;20449;-57
2023/03/24 07:19:22;;;;;;;6.60;2.50;;;12.30;99.90;;;;;;5056235;28;20453;-56
2023/03/24 07:21:50;;;;;;;10.23;3.13;;;12.30;99.80;;;;;;5056388;28;20538;-57
2023/03/24 07:24:17;;;;;;;17.53;3.93;;;12.30;99.70;;;;;;5056170;28;20473;-56
2023/03/24 07:26:44;;;;;;;10.80;3.30;;;12.30;99.60;;;;;;5056246;28;20445;-56
2023/03/24 07:29:11;;;;;;;17.10;3.20;;;12.30;99.30;;;;;;5056042;28;20503;-57
2023/03/24 07:31:39;;;;;;;13.73;3.50;;;12.30;99.60;;;;;;5056019;28;20477;-57
2023/03/24 07:34:06;;;;;;;10.43;3.50;;;12.40;99.30;;;;;;5055882;28;20556;-57
2023/03/24 07:36:34;;;;;;;12.77;3.93;;;12.40;99.40;;;;;;5054692;28;20495;-57
2023/03/24 07:39:03;;;;;;;7.07;3.17;;;12.50;99.10;;;;;;5055909;28;20807;-57
2023/03/24 07:41:31;;;;;;;13.33;4.10;;;12.50;99.40;;;;;;5055837;28;20496;-57
2023/03/24 07:43:58;;;;;;;9.10;3.20;;;12.60;99.50;;;;;;5055383;28;21041;-56
2023/03/24 07:46:25;;;;;;;10.10;3.20;;;12.60;99.60;;;;;;5055774;28;20477;-57
2023/03/24 07:48:52;;;;;;;9.57;2.67;;;12.70;99.60;;;;;;5055737;28;20457;-56
2023/03/24 07:51:18;;;;;;;7.27;2.70;;;12.70;99.10;;;;;;5055535;28;20518;-56
2023/03/24 07:53:46;;;;;;;4.23;2.40;;;12.80;98.90;;;;;;5055265;28;20974;-57
2023/03/24 07:56:14;;;;;;;5.93;2.57;;;12.80;99.00;;;;;;5055631;28;20460;-56
2023/03/24 07:58:41;;;;;;;9.50;2.40;;;12.80;98.70;;;;;;5055494;28;20869;-56
2023/03/24 08:01:09;;;;;;;5.07;2.03;;;12.90;98.90;;;;;;5055794;28;20458;-57
2023/03/24 08:03:35;;;;;;;7.70;2.47;;;13.00;98.40;;;;;;5055242;28;21013;-56
2023/03/24 08:06:03;;;;;;;9.57;2.97;;;13.00;98.30;;;;;;5055109;28;20485;-57
2023/03/24 08:08:30;;;;;;;8.00;2.37;;;13.20;98.60;;;;;;5055039;28;20956;-56
2023/03/24 08:10:56;;;;;;;5.97;1.80;;;13.30;97.70;;;;;;5055572;28;20445;-56
2023/03/24 08:13:25;;;;;;;5.50;2.30;;;13.50;97.40;;;;;;5055043;28;20975;-57
2023/03/24 08:15:52;;;;;;;10.13;2.10;;;13.60;97.00;;;;;;5054996;28;20456;-56
2023/03/24 08:18:20;;;;;;;3.77;1.97;;;13.60;96.50;;;;;;5055610;28;20532;-56
2023/03/24 08:20:47;;;;;;;7.27;3.03;;;13.60;96.00;;;;;;5055085;28;20499;-56
2023/03/24 08:23:15;;;;;;;16.73;2.87;;;13.40;96.20;;;;;;5054761;28;20499;-56
2023/03/24 08:25:41;;;;;;;6.30;2.43;;;13.20;96.40;;;;;;5055054;28;20541;-56
2023/03/24 08:28:08;;;;;;;12.03;2.30;;;13.20;97.10;;;;;;5054830;28;20449;-56
2023/03/24 08:30:36;;;;;;;13.90;2.47;;;13.10;97.10;;;;;;5054977;28;20445;-56
2023/03/24 08:33:03;;;;;;;14.80;3.20;;;13.10;96.90;;;;;;5054917;28;20474;-56
2023/03/24 08:35:32;;;;;;;13.50;2.70;;;13.00;97.00;;;;;;5054742;28;20795;-57
2023/03/24 08:38:00;;;;;;;11.30;2.33;;;13.00;97.20;;;;;;5054767;28;20795;-56
2023/03/24 08:40:30;;;;;;;14.90;3.17;;;12.90;97.00;;;;;;5054850;28;20437;-56
2023/03/24 08:42:59;;;;;;;6.93;2.47;;;12.90;97.30;;;;;;5054617;28;20547;-57
2023/03/24 08:45:29;;;;;;;6.70;2.20;;;12.90;96.80;;;;;;5054641;28;20799;-56
2023/03/24 08:47:59;;;;;;;7.40;2.67;;;13.00;96.80;;;;;;5054389;28;20831;-56
2023/03/24 08:50:29;;;;;;;8.90;2.30;;;13.00;97.00;;;;;;5054635;28;20456;-56
2023/03/24 08:52:56;;;;;;;8.93;2.80;;;13.10;96.10;;;;;;5054267;28;20470;-58
2023/03/24 08:55:25;;;;;;;8.10;2.73;;;13.10;95.70;;;;;;5054889;28;20492;-56
2023/03/24 08:57:52;;;;;;;9.50;2.77;;;13.20;96.70;;;;;;5054127;28;20456;-56
2023/03/24 09:00:21;;;;;;;9.67;3.30;;;13.10;96.10;;;;;;5054114;28;20936;-56
2023/03/24 09:02:50;;;;;;;10.03;2.77;;;13.00;95.30;;;;;;5054101;28;20486;-57
2023/03/24 09:05:20;;;;;;;8.43;3.30;;;13.00;94.90;;;;;;5054221;28;20450;-56
2023/03/24 09:07:47;;;;;;;8.27;3.20;;;13.00;96.30;;;;;;5054282;28;20453;-56
2023/03/24 09:10:14;;;;;;;12.93;3.70;;;13.10;96.40;;;;;;5054187;28;20453;-56
2023/03/24 09:12:42;;;;;;;7.13;2.83;;;13.20;96.20;;;;;;5053682;28;20983;-57
2023/03/24 09:15:10;;;;;;;13.27;3.40;;;13.30;96.10;;;;;;5053688;28;20452;-57
2023/03/24 09:17:38;;;;;;;11.47;4.13;;;13.40;95.70;;;;;;5054132;28;20449;-57
2023/03/24 09:20:10;;;;;;;9.20;3.67;;;13.50;95.40;;;;;;5054043;28;20449;-56
2023/03/24 09:22:38;;;;;;;10.30;3.93;;;13.60;95.60;;;;;;5053810;28;20489;-57
2023/03/24 09:25:06;;;;;;;11.70;3.33;;;13.80;94.60;;;;;;5053861;28;20982;-57
2023/03/24 09:27:33;;;;;;;4.70;2.37;;;13.90;94.60;;;;;;5053769;28;20452;-57
2023/03/24 09:29:59;;;;;;;10.43;3.17;;;13.90;93.30;;;;;;5053997;28;20452;-57
2023/03/24 09:32:26;;;;;;;10.37;3.33;;;14.00;94.50;;;;;;5053942;28;20452;-57
2023/03/24 09:34:53;;;;;;;8.23;3.00;;;14.20;93.60;;;;;;5053616;28;20453;-57
2023/03/24 09:37:20;;;;;;;10.80;3.50;;;14.40;93.00;;;;;;5053678;28;20488;-57
2023/03/24 09:39:49;;;;;;;8.70;2.90;;;14.40;92.70;;;;;;5053330;28;20839;-57
2023/03/24 09:42:22;;;;;;;9.50;3.33;;;14.20;92.50;;;;;;5053483;28;20527;-57
2023/03/24 09:44:54;;;;;;;13.73;3.60;;;14.30;93.50;;;;;;5053744;28;20450;-57
2023/03/24 09:47:28;;;;;;;12.03;3.37;;;14.60;93.40;;;;;;5053597;28;20774;-57
2023/03/24 09:50:00;;;;;;;8.27;3.33;;;14.80;92.40;;;;;;5053703;28;20488;-57
2023/03/24 09:52:32;;;;;;;10.10;3.33;;;14.90;92.70;;;;;;5053931;28;20437;-57
2023/03/24 09:55:01;;;;;;;8.70;2.87;;;14.80;91.70;;;;;;5053731;28;20488;-57
2023/03/24 09:57:35;;;;;;;11.63;3.00;;;14.80;91.40;;;;;;5053534;28;20445;-57
2023/03/24 10:00:09;;;;;;;10.93;3.43;;;14.80;91.70;;;;;;5052957;28;20438;-57
2023/03/24 10:02:36;;;;;;;6.27;2.30;;;14.80;92.10;;;;;;5053573;28;20900;-57
2023/03/24 10:05:11;;;;;;;5.70;2.33;;;15.00;91.90;;;;;;5053432;28;20445;-57
2023/03/24 10:07:43;;;;;;;7.90;2.30;;;15.10;91.10;;;;;;5053137;28;20962;-57
2023/03/24 10:10:20;;;;;;;8.60;2.50;;;15.00;90.10;;;;;;5053535;28;20434;-56
2023/03/24 10:12:49;;;;;;;8.93;2.30;;;14.90;90.40;;;;;;5053346;28;20527;-57
2023/03/24 10:15:26;;;;;;;9.23;3.00;;;14.80;90.90;;;;;;5053314;28;20453;-57
2023/03/24 10:17:57;;;;;;;11.50;2.50;;;14.80;91.30;;;;;;5053421;28;20433;-56
2023/03/24 10:20:32;;;;;;;7.30;2.53;;;14.80;90.60;;;;;;5053343;28;20796;-56
2023/03/24 10:23:02;;;;;;;9.97;2.60;;;14.80;91.20;;;;;;5053101;28;20492;-57
2023/03/24 10:25:45;;;;;;;9.07;2.37;;;14.60;89.50;;;;;;5053286;28;20449;-57
2023/03/24 10:28:18;;;;;;;9.90;2.33;;;14.40;90.50;;;;;;5052903;28;20934;-57
2023/03/24 10:30:47;;;;;;;12.40;2.30;;;14.20;90.40;;;;;;5052796;28;20903;-57
2023/03/24 10:33:14;;;;;;;10.73;2.00;;;14.10;90.60;;;;;;5051526;28;20466;-57
2023/03/24 10:35:46;;;;;;;8.50;2.73;;;14.10;91.10;;;;;;5052584;28;20532;-57
2023/03/24 10:38:17;;;;;;;9.70;2.27;;;14.10;91.10;;;;;;5052797;28;20442;-57
2023/03/24 10:40:46;;;;;;;8.03;2.40;;;14.10;90.10;;;;;;5053084;28;20521;-57
2023/03/24 10:43:15;;;;;;;3.97;2.00;;;14.10;90.40;;;;;;5053006;28;20481;-57
2023/03/24 10:45:44;;;;;;;8.13;2.10;;;14.20;90.50;;;;;;5052958;28;20454;-57
2023/03/24 10:48:13;;;;;;;7.40;1.70;;;14.50;90.30;;;;;;5052886;28;20446;-57
2023/03/24 10:50:44;;;;;;;6.80;1.97;;;14.70;88.60;;;;;;5053197;28;20493;-57
2023/03/24 10:53:17;;;;;;;8.60;2.70;;;14.80;87.40;;;;;;5052950;28;20476;-58
2023/03/24 10:55:47;;;;;;;8.17;2.13;;;14.90;86.50;;;;;;5052898;28;20430;-57
2023/03/24 10:58:20;;;;;;;10.13;2.70;;;15.10;87.00;;;;;;5052814;28;20458;-57
2023/03/24 11:00:48;;;;;;;8.03;1.63;;;15.20;86.50;;;;;;5052833;28;20513;-56
2023/03/24 11:03:17;;;;;;;6.77;2.00;;;15.40;86.40;;;;;;5052809;28;20580;-57
2023/03/24 11:05:44;;;;;;;4.97;1.60;;;15.50;83.80;;;;;;5052727;28;20495;-57
2023/03/24 11:08:27;;;;;;;4.77;1.93;;;15.70;83.70;;;;;;5052348;28;20963;-57
2023/03/24 11:10:55;;;;;;;7.10;1.80;;;16.20;81.40;;;;;;5053103;28;20430;-57
2023/03/24 11:13:28;;;;;;;9.93;1.70;;;16.70;80.50;;;;;;5056367;28;20469;-57
2023/03/24 11:16:03;;;;;;;8.07;1.80;;;17.20;76.50;;;;;;5056301;28;20426;-57
2023/03/24 11:18:30;;;;;;;9.20;2.43;;;17.30;74.10;;;;;;5056569;28;20425;-57
2023/03/24 11:20:59;;;;;;;5.20;1.80;;;17.40;74.40;;;;;;5056413;28;20456;-57
2023/03/24 11:23:28;;;;;;;5.40;1.70;;;17.60;71.90;;;;;;5056108;28;20607;-57
2023/03/24 11:26:08;;;;;;;3.17;1.40;;;17.80;67.50;;;;;;5056024;28;20445;-57
2023/03/24 11:28:41;;;;;;;10.13;1.93;;;17.80;68.20;;;;;;5056200;28;20461;-57
2023/03/24 11:31:10;;;;;;;9.23;2.40;;;17.60;66.50;;;;;;5056130;28;20456;-57
2023/03/24 11:33:45;;;;;;;5.93;1.70;;;17.40;67.10;;;;;;5055874;28;20465;-57
2023/03/24 11:36:41;;;;;;;7.00;2.73;;;16.70;67.90;;;;;;5055895;28;20433;-57
2023/03/24 11:39:18;;;;;;;5.87;1.90;;;16.70;69.50;;;;;;5055362;28;20986;-57
2023/03/24 11:41:58;;;;;;;4.47;1.70;;;16.90;68.60;;;;;;5055928;28;20845;-57
2023/03/24 11:44:26;;;;;;;8.13;1.70;;;16.90;69.20;;;;;;5055657;28;20531;-57
2023/03/24 11:46:57;;;;;;;6.37;1.53;;;16.70;69.80;;;;;;5055959;28;20503;-57
2023/03/24 11:49:28;;;;;;;6.77;2.07;;;16.60;70.10;;;;;;5056329;28;20503;-57
2023/03/24 11:51:55;;;;;;;6.63;1.37;;;16.40;70.90;;;;;;5055636;28;20508;-57
2023/03/24 11:54:27;;;;;;;8.97;2.30;;;16.20;71.20;;;;;;5055786;28;20844;-57
2023/03/24 11:56:59;;;;;;;15.87;3.13;;;15.90;73.20;;;;;;5055682;28;20884;-57
2023/03/24 11:59:32;;;;;;;8.17;1.83;;;16.00;74.20;;;;;;5055673;28;20438;-57
2023/03/24 12:02:10;;;;;;;7.67;1.43;;;16.40;75.80;;;;;;5055787;28;20500;-57
2023/03/24 12:04:48;;;;;;;7.27;1.70;;;17.10;71.70;;;;;;5055541;28;20469;-57
2023/03/24 12:07:43;;;;;;;7.63;2.37;;;18.10;68.30;;;;;;5055025;28;20814;-57
2023/03/24 12:10:21;;;;;;;7.33;2.43;;;18.70;64.70;;;;;;5055592;28;20487;-57
2023/03/24 12:12:57;;;;;;;7.60;1.97;;;18.90;62.40;;;;;;5055374;28;20472;-57
2023/03/24 12:15:35;;;;;;;6.07;1.73;;;18.60;62.10;;;;;;5055505;28;20440;-57
2023/03/24 12:18:19;;;;;;;11.13;1.80;;;18.20;63.00;;;;;;5055565;28;20448;-57
2023/03/24 12:20:52;;;;;;;6.93;2.10;;;17.70;62.80;;;;;;5055535;28;20505;-57
2023/03/24 12:23:27;;;;;;;9.00;2.50;;;18.10;65.70;;;;;;5055175;28;20919;-57
2023/03/24 12:26:15;;;;;;;11.80;2.23;;;18.90;61.90;;;;;;5055617;28;20491;-57
2023/03/24 12:29:18;;;;;;;4.80;2.07;;;19.10;60.80;;;;;;5055159;28;20472;-57
2023/03/24 12:31:57;;;;;;;6.43;1.90;;;18.70;59.30;;;;;;5054941;28;20433;-57
2023/03/24 12:34:56;;;;;;;6.77;2.23;;;18.60;62.20;;;;;;5054599;28;20997;-57
2023/03/24 12:37:32;;;;;;;7.27;1.70;;;18.50;59.60;;;;;;5051261;28;20480;-57
2023/03/24 12:40:13;;;;;;;9.20;1.90;;;18.30;61.20;;;;;;5054705;28;20477;-57
2023/03/24 12:42:43;;;;;;;4.90;2.03;;;18.20;63.00;;;;;;5055366;28;20516;-57
2023/03/24 12:45:25;;;;;;;6.60;2.10;;;17.90;61.50;;;;;;5054610;28;20475;-57
2023/03/24 12:48:14;;;;;;;6.63;1.90;;;17.60;65.30;;;;;;5054702;28;20853;-57
2023/03/24 12:50:53;;;;;;;12.07;2.00;;;17.70;67.30;;;;;;5054625;28;20429;-57
2023/03/24 12:53:40;;;;;;;4.27;1.90;;;18.30;63.80;;;;;;5054538;28;20462;-57
2023/03/24 12:56:13;;;;;;;9.60;2.10;;;19.20;60.80;;;;;;5054169;28;20473;-57
2023/03/24 12:58:42;;;;;;;6.50;1.57;;;19.40;58.50;;;;;;5054599;28;20525;-57
2023/03/24 13:01:18;;;;;;;9.63;2.13;;;19.20;57.60;;;;;;5054719;28;20446;-57
2023/03/24 13:03:47;;;;;;;11.23;1.77;;;18.90;58.20;;;;;;5054013;28;20986;-57
2023/03/24 13:06:22;;;;;;;14.47;2.60;;;18.50;58.30;;;;;;5054285;28;20456;-57